sensor_id;sensor_type;location;lat;lon;timestamp;P1;durP1;ratioP1;P2;durP2;ratioP2
58661;SDS011;44432;49.786;22.760;2022-09-01T00:00:48;4.30;;;2.60;;
58661;SDS011;44432;49.786;22.760;2022-09-01T00:03:19;6.00;;;2.70;;
58661;SDS011;44432;49.786;22.760;2022-09-01T00:05:50;6.50;;;3.00;;
58661;SDS011;44432;49.786;22.760;2022-09-01T00:08:23;5.80;;;2.90;;
58661;SDS011;44432;49.786;22.760;2022-09-01T00:10:54;6.30;;;2.90;;
58661;SDS011;44432;49.786;22.760;2022-09-01T00:13:24;6.90;;;3.00;;
58661;SDS011;44432;49.786;22.760;2022-09-01T00:16:00;9.10;;;3.20;;
58661;SDS011;44432;49.786;22.760;2022-09-01T00:18:31;8.20;;;3.50;;
58661;SDS011;44432;49.786;22.760;2022-09-01T00:21:02;6.10;;;3.40;;
58661;SDS011;44432;49.786;22.760;2022-09-01T00:23:33;9.00;;;3.80;;
58661;SDS011;44432;49.786;22.760;2022-09-01T00:26:04;8.10;;;3.50;;
58661;SDS011;44432;49.786;22.760;2022-09-01T00:28:35;7.00;;;3.40;;
58661;SDS011;44432;49.786;22.760;2022-09-01T00:31:07;5.50;;;3.10;;
58661;SDS011;44432;49.786;22.760;2022-09-01T00:33:38;5.60;;;2.90;;
58661;SDS011;44432;49.786;22.760;2022-09-01T00:36:09;4.60;;;2.70;;
58661;SDS011;44432;49.786;22.760;2022-09-01T00:38:40;7.60;;;3.40;;
58661;SDS011;44432;49.786;22.760;2022-09-01T00:41:11;7.60;;;3.70;;
58661;SDS011;44432;49.786;22.760;2022-09-01T00:43:44;8.10;;;3.90;;
58661;SDS011;44432;49.786;22.760;2022-09-01T00:46:17;8.80;;;4.70;;
58661;SDS011;44432;49.786;22.760;2022-09-01T00:48:52;8.90;;;4.70;;
58661;SDS011;44432;49.786;22.760;2022-09-01T00:51:24;9.50;;;4.70;;
58661;SDS011;44432;49.786;22.760;2022-09-01T00:53:57;10.40;;;5.30;;
58661;SDS011;44432;49.786;22.760;2022-09-01T00:56:29;11.50;;;5.10;;
58661;SDS011;44432;49.786;22.760;2022-09-01T00:59:02;9.70;;;5.30;;
58661;SDS011;44432;49.786;22.760;2022-09-01T01:01:35;10.80;;;5.80;;
58661;SDS011;44432;49.786;22.760;2022-09-01T01:04:06;11.30;;;6.10;;
58661;SDS011;44432;49.786;22.760;2022-09-01T01:06:41;12.20;;;5.60;;
58661;SDS011;44432;49.786;22.760;2022-09-01T01:09:16;10.60;;;5.60;;
58661;SDS011;44432;49.786;22.760;2022-09-01T01:11:47;14.00;;;5.60;;
58661;SDS011;44432;49.786;22.760;2022-09-01T01:14:19;11.00;;;4.80;;
58661;SDS011;44432;49.786;22.760;2022-09-01T01:16:50;10.00;;;4.70;;
58661;SDS011;44432;49.786;22.760;2022-09-01T01:19:24;8.00;;;4.40;;
58661;SDS011;44432;49.786;22.760;2022-09-01T01:22:21;7.80;;;3.90;;
58661;SDS011;44432;49.786;22.760;2022-09-01T01:25:19;6.50;;;3.70;;
58661;SDS011;44432;49.786;22.760;2022-09-01T01:27:50;7.60;;;4.00;;
58661;SDS011;44432;49.786;22.760;2022-09-01T01:30:30;7.30;;;3.60;;
58661;SDS011;44432;49.786;22.760;2022-09-01T01:33:04;7.10;;;3.50;;
58661;SDS011;44432;49.786;22.760;2022-09-01T01:35:35;7.00;;;3.50;;
58661;SDS011;44432;49.786;22.760;2022-09-01T01:38:06;6.40;;;3.20;;
58661;SDS011;44432;49.786;22.760;2022-09-01T01:40:38;10.10;;;3.80;;
58661;SDS011;44432;49.786;22.760;2022-09-01T01:43:09;6.50;;;3.40;;
58661;SDS011;44432;49.786;22.760;2022-09-01T01:45:50;7.60;;;3.30;;
58661;SDS011;44432;49.786;22.760;2022-09-01T01:48:25;10.00;;;4.50;;
58661;SDS011;44432;49.786;22.760;2022-09-01T01:51:01;8.20;;;3.40;;
58661;SDS011;44432;49.786;22.760;2022-09-01T01:53:33;7.60;;;3.50;;
58661;SDS011;44432;49.786;22.760;2022-09-01T01:56:04;8.20;;;4.00;;
58661;SDS011;44432;49.786;22.760;2022-09-01T01:58:38;8.10;;;3.80;;
58661;SDS011;44432;49.786;22.760;2022-09-01T02:01:08;7.60;;;4.20;;
58661;SDS011;44432;49.786;22.760;2022-09-01T02:03:39;9.40;;;4.10;;
58661;SDS011;44432;49.786;22.760;2022-09-01T02:06:10;6.60;;;3.40;;
58661;SDS011;44432;49.786;22.760;2022-09-01T02:08:41;7.50;;;3.90;;
58661;SDS011;44432;49.786;22.760;2022-09-01T02:11:12;8.10;;;4.00;;
58661;SDS011;44432;49.786;22.760;2022-09-01T02:13:43;9.00;;;3.80;;
58661;SDS011;44432;49.786;22.760;2022-09-01T02:16:15;7.60;;;3.60;;
58661;SDS011;44432;49.786;22.760;2022-09-01T02:18:47;8.20;;;3.80;;
58661;SDS011;44432;49.786;22.760;2022-09-01T02:21:21;9.20;;;3.60;;
58661;SDS011;44432;49.786;22.760;2022-09-01T02:23:54;6.70;;;3.10;;
58661;SDS011;44432;49.786;22.760;2022-09-01T02:26:29;9.90;;;3.40;;
58661;SDS011;44432;49.786;22.760;2022-09-01T02:29:03;5.10;;;2.90;;
58661;SDS011;44432;49.786;22.760;2022-09-01T02:31:35;5.10;;;2.70;;
58661;SDS011;44432;49.786;22.760;2022-09-01T02:34:07;5.30;;;2.70;;
58661;SDS011;44432;49.786;22.760;2022-09-01T02:36:41;6.90;;;3.10;;
58661;SDS011;44432;49.786;22.760;2022-09-01T02:39:15;8.90;;;3.30;;
58661;SDS011;44432;49.786;22.760;2022-09-01T02:41:49;5.70;;;3.20;;
58661;SDS011;44432;49.786;22.760;2022-09-01T02:44:21;4.70;;;2.50;;
58661;SDS011;44432;49.786;22.760;2022-09-01T02:46:54;8.20;;;2.90;;
58661;SDS011;44432;49.786;22.760;2022-09-01T02:49:25;7.10;;;3.00;;
58661;SDS011;44432;49.786;22.760;2022-09-01T02:51:57;6.60;;;2.90;;
58661;SDS011;44432;49.786;22.760;2022-09-01T02:54:29;6.30;;;3.00;;
58661;SDS011;44432;49.786;22.760;2022-09-01T02:57:01;6.10;;;3.00;;
58661;SDS011;44432;49.786;22.760;2022-09-01T02:59:31;5.50;;;3.00;;
58661;SDS011;44432;49.786;22.760;2022-09-01T03:02:02;5.30;;;2.40;;
58661;SDS011;44432;49.786;22.760;2022-09-01T03:04:34;6.60;;;2.50;;
58661;SDS011;44432;49.786;22.760;2022-09-01T03:07:05;5.50;;;2.90;;
58661;SDS011;44432;49.786;22.760;2022-09-01T03:09:36;6.30;;;2.90;;
58661;SDS011;44432;49.786;22.760;2022-09-01T03:12:08;5.90;;;2.70;;
58661;SDS011;44432;49.786;22.760;2022-09-01T03:14:38;6.20;;;2.70;;
58661;SDS011;44432;49.786;22.760;2022-09-01T03:17:09;8.20;;;2.90;;
58661;SDS011;44432;49.786;22.760;2022-09-01T03:19:40;4.80;;;2.50;;
58661;SDS011;44432;49.786;22.760;2022-09-01T03:22:13;7.00;;;2.60;;
58661;SDS011;44432;49.786;22.760;2022-09-01T03:24:43;4.70;;;2.50;;
58661;SDS011;44432;49.786;22.760;2022-09-01T03:27:14;8.10;;;2.90;;
58661;SDS011;44432;49.786;22.760;2022-09-01T03:29:44;6.40;;;2.60;;
58661;SDS011;44432;49.786;22.760;2022-09-01T03:32:15;7.30;;;2.90;;
58661;SDS011;44432;49.786;22.760;2022-09-01T03:34:45;6.50;;;3.30;;
58661;SDS011;44432;49.786;22.760;2022-09-01T03:37:17;7.80;;;3.20;;
58661;SDS011;44432;49.786;22.760;2022-09-01T03:39:49;6.20;;;3.50;;
58661;SDS011;44432;49.786;22.760;2022-09-01T03:42:19;7.00;;;3.70;;
58661;SDS011;44432;49.786;22.760;2022-09-01T03:44:52;7.10;;;3.20;;
58661;SDS011;44432;49.786;22.760;2022-09-01T03:47:23;8.20;;;3.80;;
58661;SDS011;44432;49.786;22.760;2022-09-01T03:49:53;7.60;;;3.50;;
58661;SDS011;44432;49.786;22.760;2022-09-01T03:52:25;5.60;;;3.50;;
58661;SDS011;44432;49.786;22.760;2022-09-01T03:54:58;9.50;;;3.70;;
58661;SDS011;44432;49.786;22.760;2022-09-01T03:57:28;8.80;;;4.30;;
58661;SDS011;44432;49.786;22.760;2022-09-01T04:00:01;8.00;;;4.50;;
58661;SDS011;44432;49.786;22.760;2022-09-01T04:02:32;9.00;;;4.30;;
58661;SDS011;44432;49.786;22.760;2022-09-01T04:05:03;7.30;;;4.40;;
58661;SDS011;44432;49.786;22.760;2022-09-01T04:10:06;8.20;;;4.50;;
58661;SDS011;44432;49.786;22.760;2022-09-01T04:12:38;10.30;;;4.50;;
58661;SDS011;44432;49.786;22.760;2022-09-01T04:15:09;13.10;;;4.70;;
58661;SDS011;44432;49.786;22.760;2022-09-01T04:17:41;10.10;;;4.80;;
58661;SDS011;44432;49.786;22.760;2022-09-01T04:20:29;9.30;;;4.80;;
58661;SDS011;44432;49.786;22.760;2022-09-01T04:23:06;8.60;;;4.10;;
58661;SDS011;44432;49.786;22.760;2022-09-01T04:25:37;9.40;;;4.50;;
58661;SDS011;44432;49.786;22.760;2022-09-01T04:28:08;11.40;;;5.10;;
58661;SDS011;44432;49.786;22.760;2022-09-01T04:30:44;9.80;;;5.40;;
58661;SDS011;44432;49.786;22.760;2022-09-01T04:33:15;12.30;;;5.00;;
58661;SDS011;44432;49.786;22.760;2022-09-01T04:35:46;12.30;;;5.40;;
58661;SDS011;44432;49.786;22.760;2022-09-01T04:38:18;10.90;;;5.00;;
58661;SDS011;44432;49.786;22.760;2022-09-01T04:40:48;9.60;;;5.00;;
58661;SDS011;44432;49.786;22.760;2022-09-01T04:43:20;16.30;;;8.10;;
58661;SDS011;44432;49.786;22.760;2022-09-01T04:45:50;8.40;;;4.90;;
58661;SDS011;44432;49.786;22.760;2022-09-01T04:48:23;9.60;;;5.50;;
58661;SDS011;44432;49.786;22.760;2022-09-01T04:50:54;9.40;;;5.40;;
58661;SDS011;44432;49.786;22.760;2022-09-01T04:53:25;9.20;;;5.10;;
58661;SDS011;44432;49.786;22.760;2022-09-01T04:55:56;8.40;;;4.90;;
58661;SDS011;44432;49.786;22.760;2022-09-01T04:58:32;9.00;;;4.70;;
58661;SDS011;44432;49.786;22.760;2022-09-01T05:01:11;13.10;;;5.10;;
58661;SDS011;44432;49.786;22.760;2022-09-01T05:03:44;8.80;;;4.50;;
58661;SDS011;44432;49.786;22.760;2022-09-01T05:06:18;9.50;;;4.00;;
58661;SDS011;44432;49.786;22.760;2022-09-01T05:08:49;10.80;;;4.20;;
58661;SDS011;44432;49.786;22.760;2022-09-01T05:11:20;9.00;;;5.00;;
58661;SDS011;44432;49.786;22.760;2022-09-01T05:13:52;7.60;;;4.10;;
58661;SDS011;44432;49.786;22.760;2022-09-01T05:16:24;8.30;;;4.10;;
58661;SDS011;44432;49.786;22.760;2022-09-01T05:18:54;8.70;;;3.70;;
58661;SDS011;44432;49.786;22.760;2022-09-01T05:21:25;8.70;;;4.20;;
58661;SDS011;44432;49.786;22.760;2022-09-01T05:23:58;7.40;;;4.10;;
58661;SDS011;44432;49.786;22.760;2022-09-01T05:29:02;9.80;;;4.30;;
58661;SDS011;44432;49.786;22.760;2022-09-01T05:31:37;9.30;;;4.00;;
58661;SDS011;44432;49.786;22.760;2022-09-01T05:34:08;7.80;;;4.20;;
58661;SDS011;44432;49.786;22.760;2022-09-01T05:36:41;8.80;;;4.60;;
58661;SDS011;44432;49.786;22.760;2022-09-01T05:39:17;11.40;;;4.40;;
58661;SDS011;44432;49.786;22.760;2022-09-01T05:41:48;6.90;;;4.30;;
58661;SDS011;44432;49.786;22.760;2022-09-01T05:44:20;10.10;;;5.20;;
58661;SDS011;44432;49.786;22.760;2022-09-01T05:46:51;7.80;;;4.40;;
58661;SDS011;44432;49.786;22.760;2022-09-01T05:51:55;9.60;;;5.00;;
58661;SDS011;44432;49.786;22.760;2022-09-01T05:54:25;8.40;;;4.80;;
58661;SDS011;44432;49.786;22.760;2022-09-01T05:56:56;7.00;;;4.10;;
58661;SDS011;44432;49.786;22.760;2022-09-01T05:59:28;13.60;;;3.80;;
58661;SDS011;44432;49.786;22.760;2022-09-01T06:01:59;9.00;;;5.20;;
58661;SDS011;44432;49.786;22.760;2022-09-01T06:04:30;16.80;;;4.20;;
58661;SDS011;44432;49.786;22.760;2022-09-01T06:07:01;9.40;;;4.10;;
58661;SDS011;44432;49.786;22.760;2022-09-01T06:09:37;8.40;;;4.00;;
58661;SDS011;44432;49.786;22.760;2022-09-01T06:12:08;6.40;;;3.60;;
58661;SDS011;44432;49.786;22.760;2022-09-01T06:14:44;8.00;;;3.90;;
58661;SDS011;44432;49.786;22.760;2022-09-01T06:17:16;6.60;;;3.80;;
58661;SDS011;44432;49.786;22.760;2022-09-01T06:19:51;6.90;;;3.90;;
58661;SDS011;44432;49.786;22.760;2022-09-01T06:22:24;6.80;;;3.40;;
58661;SDS011;44432;49.786;22.760;2022-09-01T06:24:56;9.00;;;3.50;;
58661;SDS011;44432;49.786;22.760;2022-09-01T06:27:26;6.20;;;3.40;;
58661;SDS011;44432;49.786;22.760;2022-09-01T06:29:57;6.50;;;3.20;;
58661;SDS011;44432;49.786;22.760;2022-09-01T06:32:29;8.60;;;3.30;;
58661;SDS011;44432;49.786;22.760;2022-09-01T06:35:05;10.20;;;5.60;;
58661;SDS011;44432;49.786;22.760;2022-09-01T06:37:38;6.80;;;3.90;;
58661;SDS011;44432;49.786;22.760;2022-09-01T06:40:10;8.50;;;3.20;;
58661;SDS011;44432;49.786;22.760;2022-09-01T06:42:45;8.20;;;3.90;;
58661;SDS011;44432;49.786;22.760;2022-09-01T06:47:48;6.90;;;2.90;;
58661;SDS011;44432;49.786;22.760;2022-09-01T06:50:19;7.90;;;4.40;;
58661;SDS011;44432;49.786;22.760;2022-09-01T06:52:50;7.90;;;3.10;;
58661;SDS011;44432;49.786;22.760;2022-09-01T06:55:27;11.60;;;5.30;;
58661;SDS011;44432;49.786;22.760;2022-09-01T06:58:00;6.90;;;3.20;;
58661;SDS011;44432;49.786;22.760;2022-09-01T07:00:32;6.10;;;2.90;;
58661;SDS011;44432;49.786;22.760;2022-09-01T07:03:04;6.00;;;2.90;;
58661;SDS011;44432;49.786;22.760;2022-09-01T07:05:38;6.70;;;2.70;;
58661;SDS011;44432;49.786;22.760;2022-09-01T07:08:10;8.20;;;2.60;;
58661;SDS011;44432;49.786;22.760;2022-09-01T07:10:46;4.60;;;2.60;;
58661;SDS011;44432;49.786;22.760;2022-09-01T07:13:21;6.00;;;3.40;;
58661;SDS011;44432;49.786;22.760;2022-09-01T07:15:52;5.60;;;3.00;;
58661;SDS011;44432;49.786;22.760;2022-09-01T07:18:25;6.10;;;3.10;;
58661;SDS011;44432;49.786;22.760;2022-09-01T07:20:57;6.20;;;2.70;;
58661;SDS011;44432;49.786;22.760;2022-09-01T07:23:28;6.60;;;2.60;;
58661;SDS011;44432;49.786;22.760;2022-09-01T07:25:59;5.70;;;3.10;;
58661;SDS011;44432;49.786;22.760;2022-09-01T07:28:35;8.20;;;3.40;;
58661;SDS011;44432;49.786;22.760;2022-09-01T07:31:06;7.40;;;3.50;;
58661;SDS011;44432;49.786;22.760;2022-09-01T07:33:36;6.60;;;2.50;;
58661;SDS011;44432;49.786;22.760;2022-09-01T07:36:08;7.60;;;4.30;;
58661;SDS011;44432;49.786;22.760;2022-09-01T07:38:39;6.50;;;3.40;;
58661;SDS011;44432;49.786;22.760;2022-09-01T07:41:10;4.60;;;2.30;;
58661;SDS011;44432;49.786;22.760;2022-09-01T07:43:41;6.10;;;2.90;;
58661;SDS011;44432;49.786;22.760;2022-09-01T07:46:12;6.50;;;4.00;;
58661;SDS011;44432;49.786;22.760;2022-09-01T07:48:43;4.90;;;2.50;;
58661;SDS011;44432;49.786;22.760;2022-09-01T07:51:16;4.60;;;2.60;;
58661;SDS011;44432;49.786;22.760;2022-09-01T07:53:48;6.80;;;3.60;;
58661;SDS011;44432;49.786;22.760;2022-09-01T07:56:20;6.20;;;2.50;;
58661;SDS011;44432;49.786;22.760;2022-09-01T07:58:51;8.20;;;4.00;;
58661;SDS011;44432;49.786;22.760;2022-09-01T08:01:23;7.30;;;2.70;;
58661;SDS011;44432;49.786;22.760;2022-09-01T08:03:55;7.10;;;2.40;;
58661;SDS011;44432;49.786;22.760;2022-09-01T08:06:28;6.60;;;2.50;;
58661;SDS011;44432;49.786;22.760;2022-09-01T08:08:59;4.60;;;1.60;;
58661;SDS011;44432;49.786;22.760;2022-09-01T08:11:32;4.30;;;1.80;;
58661;SDS011;44432;49.786;22.760;2022-09-01T08:14:03;5.00;;;1.70;;
58661;SDS011;44432;49.786;22.760;2022-09-01T08:16:33;4.30;;;2.60;;
58661;SDS011;44432;49.786;22.760;2022-09-01T08:19:04;4.00;;;2.00;;
58661;SDS011;44432;49.786;22.760;2022-09-01T08:21:35;3.10;;;1.50;;
58661;SDS011;44432;49.786;22.760;2022-09-01T08:24:07;5.50;;;1.40;;
58661;SDS011;44432;49.786;22.760;2022-09-01T08:26:37;3.70;;;1.60;;
58661;SDS011;44432;49.786;22.760;2022-09-01T08:29:08;5.70;;;1.80;;
58661;SDS011;44432;49.786;22.760;2022-09-01T08:31:39;6.40;;;1.70;;
58661;SDS011;44432;49.786;22.760;2022-09-01T08:34:09;4.30;;;1.60;;
58661;SDS011;44432;49.786;22.760;2022-09-01T08:36:40;5.40;;;1.90;;
58661;SDS011;44432;49.786;22.760;2022-09-01T08:39:11;5.10;;;2.40;;
58661;SDS011;44432;49.786;22.760;2022-09-01T08:41:42;4.70;;;1.60;;
58661;SDS011;44432;49.786;22.760;2022-09-01T08:44:24;4.60;;;1.80;;
58661;SDS011;44432;49.786;22.760;2022-09-01T08:47:06;4.00;;;1.60;;
58661;SDS011;44432;49.786;22.760;2022-09-01T08:49:39;4.70;;;2.20;;
58661;SDS011;44432;49.786;22.760;2022-09-01T08:52:15;4.00;;;1.90;;
58661;SDS011;44432;49.786;22.760;2022-09-01T08:54:52;5.70;;;2.20;;
58661;SDS011;44432;49.786;22.760;2022-09-01T08:57:29;5.10;;;1.80;;
58661;SDS011;44432;49.786;22.760;2022-09-01T09:00:03;6.90;;;2.10;;
58661;SDS011;44432;49.786;22.760;2022-09-01T09:02:38;3.30;;;1.70;;
58661;SDS011;44432;49.786;22.760;2022-09-01T09:05:30;8.40;;;1.60;;
58661;SDS011;44432;49.786;22.760;2022-09-01T09:08:19;3.20;;;1.50;;
58661;SDS011;44432;49.786;22.760;2022-09-01T09:11:03;4.50;;;1.80;;
58661;SDS011;44432;49.786;22.760;2022-09-01T09:13:40;4.40;;;1.40;;
58661;SDS011;44432;49.786;22.760;2022-09-01T09:16:24;4.70;;;1.60;;
58661;SDS011;44432;49.786;22.760;2022-09-01T09:18:59;3.20;;;1.70;;
58661;SDS011;44432;49.786;22.760;2022-09-01T09:21:35;3.20;;;1.60;;
58661;SDS011;44432;49.786;22.760;2022-09-01T09:24:13;3.70;;;1.40;;
58661;SDS011;44432;49.786;22.760;2022-09-01T09:26:49;3.90;;;1.70;;
58661;SDS011;44432;49.786;22.760;2022-09-01T09:29:21;2.80;;;1.30;;
58661;SDS011;44432;49.786;22.760;2022-09-01T09:32:00;3.40;;;0.90;;
58661;SDS011;44432;49.786;22.760;2022-09-01T09:34:33;2.80;;;1.10;;
58661;SDS011;44432;49.786;22.760;2022-09-01T09:37:22;3.00;;;0.90;;
58661;SDS011;44432;49.786;22.760;2022-09-01T09:40:06;3.00;;;1.30;;
58661;SDS011;44432;49.786;22.760;2022-09-01T09:42:42;4.90;;;1.70;;
58661;SDS011;44432;49.786;22.760;2022-09-01T09:45:31;2.60;;;1.20;;
58661;SDS011;44432;49.786;22.760;2022-09-01T09:48:07;3.30;;;1.40;;
58661;SDS011;44432;49.786;22.760;2022-09-01T09:50:53;3.70;;;1.10;;
58661;SDS011;44432;49.786;22.760;2022-09-01T09:53:42;2.90;;;1.40;;
58661;SDS011;44432;49.786;22.760;2022-09-01T09:56:16;4.70;;;1.30;;
58661;SDS011;44432;49.786;22.760;2022-09-01T09:58:50;2.50;;;1.10;;
58661;SDS011;44432;49.786;22.760;2022-09-01T10:01:28;2.80;;;0.90;;
58661;SDS011;44432;49.786;22.760;2022-09-01T10:04:00;2.80;;;1.30;;
58661;SDS011;44432;49.786;22.760;2022-09-01T10:06:35;2.30;;;1.10;;
58661;SDS011;44432;49.786;22.760;2022-09-01T10:09:15;2.00;;;1.30;;
58661;SDS011;44432;49.786;22.760;2022-09-01T10:12:03;5.50;;;1.40;;
58661;SDS011;44432;49.786;22.760;2022-09-01T10:14:37;3.10;;;1.50;;
58661;SDS011;44432;49.786;22.760;2022-09-01T10:17:14;3.00;;;1.10;;
58661;SDS011;44432;49.786;22.760;2022-09-01T10:19:50;2.40;;;1.50;;
58661;SDS011;44432;49.786;22.760;2022-09-01T10:22:25;4.40;;;1.10;;
58661;SDS011;44432;49.786;22.760;2022-09-01T10:24:55;5.00;;;1.20;;
58661;SDS011;44432;49.786;22.760;2022-09-01T10:27:28;5.70;;;1.30;;
58661;SDS011;44432;49.786;22.760;2022-09-01T10:30:05;3.50;;;1.30;;
58661;SDS011;44432;49.786;22.760;2022-09-01T10:32:41;3.10;;;1.00;;
58661;SDS011;44432;49.786;22.760;2022-09-01T10:35:16;6.40;;;1.40;;
58661;SDS011;44432;49.786;22.760;2022-09-01T10:37:50;3.40;;;1.00;;
58661;SDS011;44432;49.786;22.760;2022-09-01T10:40:35;2.80;;;1.00;;
58661;SDS011;44432;49.786;22.760;2022-09-01T10:43:32;3.40;;;1.10;;
58661;SDS011;44432;49.786;22.760;2022-09-01T10:46:39;2.60;;;1.00;;
58661;SDS011;44432;49.786;22.760;2022-09-01T10:49:27;3.90;;;0.90;;
58661;SDS011;44432;49.786;22.760;2022-09-01T10:55:25;2.40;;;1.10;;
58661;SDS011;44432;49.786;22.760;2022-09-01T10:58:06;2.70;;;1.00;;
58661;SDS011;44432;49.786;22.760;2022-09-01T11:00:58;2.50;;;1.10;;
58661;SDS011;44432;49.786;22.760;2022-09-01T11:03:36;3.70;;;1.20;;
58661;SDS011;44432;49.786;22.760;2022-09-01T11:09:31;3.30;;;1.20;;
58661;SDS011;44432;49.786;22.760;2022-09-01T11:18:10;2.10;;;1.10;;
58661;SDS011;44432;49.786;22.760;2022-09-01T11:20:44;4.70;;;1.20;;
58661;SDS011;44432;49.786;22.760;2022-09-01T11:25:51;4.00;;;1.00;;
58661;SDS011;44432;49.786;22.760;2022-09-01T11:31:20;1.80;;;0.70;;
58661;SDS011;44432;49.786;22.760;2022-09-01T11:33:58;3.90;;;0.90;;
58661;SDS011;44432;49.786;22.760;2022-09-01T11:36:46;2.20;;;1.50;;
58661;SDS011;44432;49.786;22.760;2022-09-01T11:39:33;2.90;;;0.90;;
58661;SDS011;44432;49.786;22.760;2022-09-01T11:42:10;2.50;;;1.10;;
58661;SDS011;44432;49.786;22.760;2022-09-01T11:44:48;4.10;;;1.20;;
58661;SDS011;44432;49.786;22.760;2022-09-01T11:47:25;3.50;;;0.80;;
58661;SDS011;44432;49.786;22.760;2022-09-01T11:50:00;1.60;;;0.70;;
58661;SDS011;44432;49.786;22.760;2022-09-01T11:52:33;1.50;;;0.70;;
58661;SDS011;44432;49.786;22.760;2022-09-01T11:55:06;1.40;;;1.00;;
58661;SDS011;44432;49.786;22.760;2022-09-01T11:57:38;1.50;;;0.70;;
58661;SDS011;44432;49.786;22.760;2022-09-01T12:00:10;3.20;;;0.80;;
58661;SDS011;44432;49.786;22.760;2022-09-01T12:02:43;5.40;;;1.00;;
58661;SDS011;44432;49.786;22.760;2022-09-01T12:05:26;1.50;;;1.00;;
58661;SDS011;44432;49.786;22.760;2022-09-01T12:07:59;2.70;;;1.00;;
58661;SDS011;44432;49.786;22.760;2022-09-01T12:10:34;3.10;;;0.90;;
58661;SDS011;44432;49.786;22.760;2022-09-01T12:13:07;2.30;;;1.00;;
58661;SDS011;44432;49.786;22.760;2022-09-01T12:15:39;3.00;;;0.90;;
58661;SDS011;44432;49.786;22.760;2022-09-01T12:18:12;2.20;;;1.70;;
58661;SDS011;44432;49.786;22.760;2022-09-01T12:20:47;3.30;;;0.90;;
58661;SDS011;44432;49.786;22.760;2022-09-01T12:23:23;2.70;;;1.10;;
58661;SDS011;44432;49.786;22.760;2022-09-01T12:25:56;1.40;;;0.70;;
58661;SDS011;44432;49.786;22.760;2022-09-01T12:28:30;1.90;;;0.80;;
58661;SDS011;44432;49.786;22.760;2022-09-01T12:31:04;3.30;;;0.90;;
58661;SDS011;44432;49.786;22.760;2022-09-01T12:33:36;2.00;;;0.80;;
58661;SDS011;44432;49.786;22.760;2022-09-01T12:36:17;1.00;;;0.80;;
58661;SDS011;44432;49.786;22.760;2022-09-01T12:38:51;2.70;;;0.90;;
58661;SDS011;44432;49.786;22.760;2022-09-01T12:41:23;3.50;;;0.90;;
58661;SDS011;44432;49.786;22.760;2022-09-01T12:46:56;2.00;;;0.60;;
58661;SDS011;44432;49.786;22.760;2022-09-01T12:49:34;4.30;;;0.80;;
58661;SDS011;44432;49.786;22.760;2022-09-01T12:52:13;1.70;;;0.80;;
58661;SDS011;44432;49.786;22.760;2022-09-01T12:54:53;1.10;;;0.60;;
58661;SDS011;44432;49.786;22.760;2022-09-01T12:57:35;0.70;;;0.40;;
58661;SDS011;44432;49.786;22.760;2022-09-01T13:00:16;1.60;;;0.70;;
58661;SDS011;44432;49.786;22.760;2022-09-01T13:02:48;0.80;;;0.50;;
58661;SDS011;44432;49.786;22.760;2022-09-01T13:05:33;3.50;;;1.20;;
58661;SDS011;44432;49.786;22.760;2022-09-01T13:08:07;1.40;;;0.90;;
58661;SDS011;44432;49.786;22.760;2022-09-01T13:10:39;1.50;;;0.90;;
58661;SDS011;44432;49.786;22.760;2022-09-01T13:13:12;7.50;;;1.80;;
58661;SDS011;44432;49.786;22.760;2022-09-01T13:15:45;1.80;;;0.60;;
58661;SDS011;44432;49.786;22.760;2022-09-01T13:18:18;1.10;;;0.80;;
58661;SDS011;44432;49.786;22.760;2022-09-01T13:20:51;2.80;;;1.10;;
58661;SDS011;44432;49.786;22.760;2022-09-01T13:23:23;2.10;;;0.70;;
58661;SDS011;44432;49.786;22.760;2022-09-01T13:25:53;1.40;;;0.70;;
58661;SDS011;44432;49.786;22.760;2022-09-01T13:28:25;2.60;;;0.80;;
58661;SDS011;44432;49.786;22.760;2022-09-01T13:30:56;1.40;;;0.80;;
58661;SDS011;44432;49.786;22.760;2022-09-01T13:33:33;3.50;;;0.70;;
58661;SDS011;44432;49.786;22.760;2022-09-01T13:36:04;1.30;;;0.70;;
58661;SDS011;44432;49.786;22.760;2022-09-01T13:38:35;2.50;;;0.80;;
58661;SDS011;44432;49.786;22.760;2022-09-01T13:41:06;2.30;;;0.60;;
58661;SDS011;44432;49.786;22.760;2022-09-01T13:43:38;2.70;;;0.80;;
58661;SDS011;44432;49.786;22.760;2022-09-01T13:46:08;2.30;;;1.10;;
58661;SDS011;44432;49.786;22.760;2022-09-01T13:48:39;1.20;;;0.60;;
58661;SDS011;44432;49.786;22.760;2022-09-01T13:51:10;1.80;;;0.90;;
58661;SDS011;44432;49.786;22.760;2022-09-01T13:53:40;1.90;;;0.70;;
58661;SDS011;44432;49.786;22.760;2022-09-01T13:56:11;3.80;;;1.00;;
58661;SDS011;44432;49.786;22.760;2022-09-01T13:58:42;2.70;;;0.80;;
58661;SDS011;44432;49.786;22.760;2022-09-01T14:01:12;1.10;;;0.70;;
58661;SDS011;44432;49.786;22.760;2022-09-01T14:03:43;2.40;;;0.70;;
58661;SDS011;44432;49.786;22.760;2022-09-01T14:06:15;1.70;;;1.00;;
58661;SDS011;44432;49.786;22.760;2022-09-01T14:08:45;1.80;;;0.80;;
58661;SDS011;44432;49.786;22.760;2022-09-01T14:11:17;4.80;;;0.70;;
58661;SDS011;44432;49.786;22.760;2022-09-01T14:13:48;2.70;;;0.60;;
58661;SDS011;44432;49.786;22.760;2022-09-01T14:16:18;1.20;;;0.70;;
58661;SDS011;44432;49.786;22.760;2022-09-01T14:18:49;1.30;;;0.60;;
58661;SDS011;44432;49.786;22.760;2022-09-01T14:21:19;1.80;;;0.80;;
58661;SDS011;44432;49.786;22.760;2022-09-01T14:23:50;3.60;;;0.70;;
58661;SDS011;44432;49.786;22.760;2022-09-01T14:26:21;1.20;;;0.90;;
58661;SDS011;44432;49.786;22.760;2022-09-01T14:28:53;2.10;;;1.10;;
58661;SDS011;44432;49.786;22.760;2022-09-01T14:31:24;5.30;;;1.10;;
58661;SDS011;44432;49.786;22.760;2022-09-01T14:33:56;1.70;;;0.80;;
58661;SDS011;44432;49.786;22.760;2022-09-01T14:36:26;2.50;;;1.00;;
58661;SDS011;44432;49.786;22.760;2022-09-01T14:38:57;2.70;;;1.10;;
58661;SDS011;44432;49.786;22.760;2022-09-01T14:41:28;3.90;;;0.90;;
58661;SDS011;44432;49.786;22.760;2022-09-01T14:43:59;3.60;;;1.20;;
58661;SDS011;44432;49.786;22.760;2022-09-01T14:46:30;1.70;;;0.60;;
58661;SDS011;44432;49.786;22.760;2022-09-01T14:49:03;1.60;;;1.20;;
58661;SDS011;44432;49.786;22.760;2022-09-01T14:51:34;1.90;;;0.90;;
58661;SDS011;44432;49.786;22.760;2022-09-01T14:54:05;3.40;;;1.40;;
58661;SDS011;44432;49.786;22.760;2022-09-01T14:56:36;5.30;;;1.30;;
58661;SDS011;44432;49.786;22.760;2022-09-01T14:59:08;1.30;;;0.70;;
58661;SDS011;44432;49.786;22.760;2022-09-01T15:01:38;4.50;;;1.00;;
58661;SDS011;44432;49.786;22.760;2022-09-01T15:04:09;4.70;;;1.80;;
58661;SDS011;44432;49.786;22.760;2022-09-01T15:06:40;6.30;;;2.70;;
58661;SDS011;44432;49.786;22.760;2022-09-01T15:09:10;5.00;;;1.70;;
58661;SDS011;44432;49.786;22.760;2022-09-01T15:11:41;8.10;;;2.20;;
58661;SDS011;44432;49.786;22.760;2022-09-01T15:14:12;7.10;;;1.80;;
58661;SDS011;44432;49.786;22.760;2022-09-01T15:16:43;3.60;;;1.50;;
58661;SDS011;44432;49.786;22.760;2022-09-01T15:19:14;3.80;;;1.30;;
58661;SDS011;44432;49.786;22.760;2022-09-01T15:21:44;4.80;;;1.80;;
58661;SDS011;44432;49.786;22.760;2022-09-01T15:24:16;6.30;;;3.30;;
58661;SDS011;44432;49.786;22.760;2022-09-01T15:26:46;13.40;;;7.20;;
58661;SDS011;44432;49.786;22.760;2022-09-01T15:29:17;13.50;;;6.80;;
58661;SDS011;44432;49.786;22.760;2022-09-01T15:31:48;11.30;;;5.20;;
58661;SDS011;44432;49.786;22.760;2022-09-01T15:34:18;10.60;;;5.30;;
58661;SDS011;44432;49.786;22.760;2022-09-01T15:36:49;10.40;;;4.30;;
58661;SDS011;44432;49.786;22.760;2022-09-01T15:39:20;8.70;;;4.10;;
58661;SDS011;44432;49.786;22.760;2022-09-01T15:41:50;9.60;;;3.50;;